Time;durP1;ratioP1;P1;durP2;ratioP2;P2;SDS_P1;SDS_P2;PMS_P1;PMS_P2;Temp;Humidity;BMP_temperature;BMP_pressure;BME280_temperature;BME280_humidity;BME280_pressure;Samples;Min_cycle;Max_cycle;Signal;HPM_P1;HPM_P2
2022/12/15 00:39:22;;;;;;;47.65;24.98;;;;;;;-11.58;88.42;99976.94;7398340;19;20019;-73
2022/12/15 00:41:51;;;;;;;49.33;25.52;;;;;;;-11.60;88.29;99972.56;7398280;19;20023;-70
2022/12/15 00:44:19;;;;;;;48.90;25.42;;;;;;;-11.60;88.23;99980.16;7397031;19;20015;-73
2022/12/15 00:46:54;;;;;;;47.35;25.20;;;;;;;-11.63;88.47;99984.25;7395989;19;20039;-73
2022/12/15 01:21:45;;;;;;;42.17;21.50;;;;;;;-11.73;88.32;99971.91;7396192;19;20034;-73
2022/12/15 01:24:14;;;;;;;41.63;22.10;;;;;;;-11.74;88.33;99974.34;7394028;19;20509;-73
2022/12/15 01:26:45;;;;;;;37.83;21.27;;;;;;;-11.74;88.40;99974.34;7394849;19;20035;-73
2022/12/15 01:29:13;;;;;;;45.40;22.58;;;;;;;-11.75;88.22;99970.06;7396384;19;20035;-73
2022/12/15 01:31:42;;;;;;;42.63;22.85;;;;;;;-11.76;88.17;99969.22;7395834;19;20428;-72
2022/12/15 01:34:11;;;;;;;45.03;23.10;;;;;;;-11.79;88.27;99969.03;7395444;19;20015;-73
2022/12/15 01:36:39;;;;;;;51.08;24.58;;;;;;;-11.79;88.20;99974.09;7393823;19;20019;-74
2022/12/15 01:39:08;;;;;;;44.55;23.17;;;;;;;-11.80;88.08;99968.16;7395219;19;20376;-73
2022/12/15 01:41:34;;;;;;;43.08;22.08;;;;;;;-11.80;88.07;99972.38;7395490;19;20039;-73
2022/12/15 01:44:22;;;;;;;45.72;23.48;;;;;;;-11.83;88.02;99970.50;7395028;19;20010;-73
2022/12/15 01:46:53;;;;;;;47.00;23.95;;;;;;;-11.88;87.90;99966.84;7392757;19;20575;-73
2022/12/15 01:49:26;;;;;;;44.25;23.27;;;;;;;-11.88;88.22;99971.06;7395753;19;20070;-73
2022/12/15 01:52:00;;;;;;;50.10;25.27;;;;;;;-11.91;88.24;99978.50;7393954;19;20039;-73
2022/12/15 01:54:32;;;;;;;47.33;24.30;;;;;;;-11.95;88.19;99970.72;7394789;19;20837;-73
2022/12/15 01:57:04;;;;;;;50.05;23.67;;;;;;;-11.99;88.13;99978.97;7393838;19;20086;-73
2022/12/15 01:59:39;;;;;;;48.40;22.70;;;;;;;-12.01;87.73;99977.13;7395597;19;20018;-70
2022/12/15 02:02:07;;;;;;;56.50;25.90;;;;;;;-12.03;87.79;99981.22;7394727;19;20422;-71
2022/12/15 02:04:43;;;;;;;52.90;25.60;;;;;;;-12.10;87.91;99979.13;7391917;19;20412;-71
2022/12/15 02:07:19;;;;;;;47.63;24.27;;;;;;;-12.08;87.92;99990.22;7393466;19;20032;-70
2022/12/15 02:09:50;;;;;;;42.78;21.08;;;;;;;-12.13;87.93;99993.34;7394795;19;20070;-70
2022/12/15 02:12:28;;;;;;;46.75;23.65;;;;;;;-12.13;87.85;99995.88;7393249;19;20070;-70
2022/12/15 02:15:12;;;;;;;59.70;24.60;;;;;;;-12.15;87.89;99997.44;7394564;19;20043;-69
2022/12/15 02:17:52;;;;;;;52.45;24.48;;;;;;;-12.18;87.59;100004.88;7393154;19;20026;-71
2022/12/15 02:20:42;;;;;;;54.97;24.15;;;;;;;-12.19;87.57;100009.84;7395037;19;20025;-70
2022/12/15 02:23:43;;;;;;;59.47;24.98;;;;;;;-12.22;87.77;100010.50;7394874;19;20032;-69
2022/12/15 02:26:55;;;;;;;51.75;25.13;;;;;;;-12.24;87.79;100014.63;7390819;19;20094;-69
2022/12/15 02:29:42;;;;;;;50.65;24.38;;;;;;;-12.25;87.88;100006.97;7393799;19;20085;-68
2022/12/15 02:32:15;;;;;;;50.80;23.70;;;;;;;-12.25;87.87;100007.81;7394289;19;20436;-69
2022/12/15 02:34:48;;;;;;;55.63;27.23;;;;;;;-12.25;87.94;100020.47;7392262;19;20022;-68
2022/12/15 02:37:19;;;;;;;48.00;23.90;;;;;;;-12.24;87.98;100017.16;7391882;19;20040;-68
2022/12/15 02:39:48;;;;;;;49.55;24.50;;;;;;;-12.22;87.90;100032.41;7394441;19;20018;-70
2022/12/15 02:42:16;;;;;;;53.95;25.55;;;;;;;-12.23;87.83;100031.56;7393586;19;20086;-70
2022/12/15 02:44:50;;;;;;;58.42;26.30;;;;;;;-12.22;87.65;100034.94;7393832;19;20022;-69
2022/12/15 02:47:24;;;;;;;;;;;;;;;-12.23;87.62;100041.66;7392862;19;20029;-69
2022/12/15 02:50:13;;;;;;;57.47;26.48;;;;;;;-12.24;87.83;100044.09;7393419;19;20330;-70
2022/12/15 02:52:54;;;;;;;53.67;25.00;;;;;;;-12.24;88.10;100039.03;7394114;19;20031;-69
2022/12/15 02:55:31;;;;;;;53.72;22.00;;;;;;;-12.24;87.99;100036.50;7393181;19;20370;-70
2022/12/15 02:58:04;;;;;;;56.20;25.33;;;;;;;-12.23;88.17;100036.59;7397231;19;20082;-71
2022/12/15 03:00:38;;;;;;;61.05;27.75;;;;;;;-12.21;88.15;100046.81;7398266;19;20420;-70
2022/12/15 03:03:09;;;;;;;;;;;;;;;-12.18;88.13;100049.50;7401150;19;20394;-70
2022/12/15 03:05:38;;;;;;;57.85;25.48;;;;;;;-12.17;88.39;100056.31;7399726;19;19919;-69
2022/12/15 03:08:08;;;;;;;54.88;24.00;;;;;;;-12.17;88.28;100049.63;7400463;19;20432;-69
2022/12/15 03:10:36;;;;;;;61.30;27.95;;;;;;;-12.16;88.09;100055.53;7400007;19;20500;-69
2022/12/15 03:13:04;;;;;;;61.00;25.90;;;;;;;-12.17;88.15;100054.66;7400258;19;20026;-70
2022/12/15 03:15:33;;;;;;;66.55;28.48;;;;;;;-12.17;88.23;100058.84;7399225;19;20023;-69
2022/12/15 03:18:01;;;;;;;67.25;28.23;;;;;;;-12.17;88.29;100061.38;7401812;19;20022;-70
2022/12/15 03:20:33;;;;;;;58.40;26.92;;;;;;;-12.17;88.39;100064.78;7402745;19;20014;-70
2022/12/15 03:23:01;;;;;;;66.10;27.48;;;;;;;-12.17;88.24;100071.47;7403240;19;20019;-70
2022/12/15 03:25:30;;;;;;;69.05;29.33;;;;;;;-12.20;88.23;100071.31;7400711;19;20027;-70
2022/12/15 03:27:58;;;;;;;58.17;26.55;;;;;;;-12.17;88.45;100079.97;7399600;19;20022;-69
2022/12/15 03:30:27;;;;;;;61.33;26.23;;;;;;;-12.18;88.41;100072.25;7399589;19;20015;-70
2022/12/15 03:32:55;;;;;;;59.25;26.05;;;;;;;-12.16;88.56;100068.16;7399618;19;20031;-70
2022/12/15 03:35:24;;;;;;;62.17;28.58;;;;;;;-12.17;88.46;100069.84;7398850;19;20039;-68
2022/12/15 03:37:55;;;;;;;54.83;27.05;;;;;;;-12.16;88.36;100063.97;7399104;19;20015;-68
2022/12/15 03:40:23;;;;;;;57.35;26.17;;;;;;;-12.14;88.48;100082.66;7398942;19;20018;-68
2022/12/15 03:42:52;;;;;;;56.35;26.15;;;;;;;-12.13;88.58;100089.47;7399231;19;20082;-68
2022/12/15 03:45:22;;;;;;;62.05;27.98;;;;;;;-12.10;88.47;100092.94;7398590;19;20083;-69
2022/12/15 03:47:52;;;;;;;62.33;27.23;;;;;;;-12.09;88.79;100090.53;7399636;19;20027;-68
2022/12/15 03:50:23;;;;;;;57.08;25.98;;;;;;;-12.07;88.66;100085.53;7399100;19;20023;-68
2022/12/15 03:52:58;;;;;;;61.20;26.15;;;;;;;-12.05;88.74;100091.56;7399045;19;20018;-68
2022/12/15 03:55:28;;;;;;;73.90;30.17;;;;;;;-12.04;88.68;100098.34;7396964;19;20082;-69
2022/12/15 03:57:57;;;;;;;61.65;27.95;;;;;;;-12.02;88.70;100101.84;7398416;19;20027;-68
2022/12/15 04:00:26;;;;;;;59.90;28.90;;;;;;;-12.00;88.65;100096.09;7396580;19;20022;-68
2022/12/15 04:02:55;;;;;;;62.80;29.27;;;;;;;-11.99;88.58;100100.38;7396193;19;20108;-68
2022/12/15 04:05:27;;;;;;;65.78;29.45;;;;;;;-11.97;88.67;100108.91;7396061;19;20014;-68
2022/12/15 04:08:00;;;;;;;58.53;27.60;;;;;;;-11.95;88.95;100114.06;7393530;19;20546;-68
2022/12/15 04:10:30;;;;;;;55.78;26.70;;;;;;;-11.93;88.86;100134.38;7396430;19;20015;-68
2022/12/15 04:12:59;;;;;;;73.65;31.83;;;;;;;-11.94;88.90;100130.97;7395778;19;20091;-68
2022/12/15 04:15:28;;;;;;;64.38;29.17;;;;;;;-11.90;88.99;100132.00;7397496;19;20025;-68
2022/12/15 04:17:57;;;;;;;64.32;29.65;;;;;;;-11.89;89.07;100129.59;7398322;19;20019;-68
2022/12/15 04:20:23;;;;;;;67.97;30.02;;;;;;;-11.88;88.84;100131.31;7397734;19;20619;-68
2022/12/15 04:22:52;;;;;;;65.55;30.60;;;;;;;-11.85;88.87;100134.03;7397907;19;20014;-68
2022/12/15 05:32:53;;;;;;;;;;;;;;;-11.39;91.61;100209.22;7396462;19;20010;-68
2022/12/15 05:35:22;;;;;;;76.63;30.35;;;;;;;-11.37;92.32;100211.84;7395084;19;19935;-68
2022/12/15 05:37:50;;;;;;;72.80;31.40;;;;;;;-11.35;91.86;100211.13;7395010;19;20033;-68
2022/12/15 05:40:19;;;;;;;60.60;29.63;;;;;;;-11.31;91.90;100207.13;7394115;19;20365;-68
2022/12/15 05:42:47;;;;;;;84.68;33.05;;;;;;;-11.28;91.59;100208.97;7394281;19;20485;-68
2022/12/15 05:45:18;;;;;;;77.20;32.00;;;;;;;-11.26;91.85;100213.31;7395233;19;20011;-68
2022/12/15 05:47:52;;;;;;;73.68;30.90;;;;;;;-11.23;91.47;100208.44;7395318;19;20015;-68
2022/12/15 05:50:21;;;;;;;80.38;32.83;;;;;;;-11.20;91.46;100210.28;7394500;19;20015;-69
2022/12/15 05:52:50;;;;;;;73.95;32.15;;;;;;;-11.18;91.24;100206.19;7394489;19;20031;-67
2022/12/15 05:55:19;;;;;;;76.95;31.95;;;;;;;-11.15;91.28;100206.34;7393939;19;20365;-69
2022/12/15 05:57:52;;;;;;;71.15;29.70;;;;;;;-11.12;91.20;100209.03;7392533;19;20521;-68
2022/12/15 06:00:24;;;;;;;73.95;29.73;;;;;;;-11.09;91.11;100214.31;7394574;19;20019;-68
2022/12/15 06:02:53;;;;;;;74.05;30.98;;;;;;;-11.08;90.86;100218.59;7392080;19;20431;-68
2022/12/15 06:05:21;;;;;;;78.68;33.10;;;;;;;-11.09;90.91;100196.56;7391600;19;20014;-69
2022/12/15 06:07:50;;;;;;;75.78;32.35;;;;;;;-11.05;91.14;100208.63;7391117;19;20015;-69
2022/12/15 06:10:19;;;;;;;69.13;28.80;;;;;;;-11.02;90.64;100220.56;7393511;19;20015;-67
2022/12/15 06:12:47;;;;;;;60.50;28.58;;;;;;;-11.02;90.82;100220.56;7394282;19;20018;-68
2022/12/15 06:15:16;;;;;;;76.65;30.67;;;;;;;-11.01;90.87;100230.78;7393754;19;20026;-69
2022/12/15 06:17:47;;;;;;;70.75;30.67;;;;;;;-11.00;90.97;100240.16;7391432;19;20584;-67
2022/12/15 06:20:15;;;;;;;74.82;29.83;;;;;;;-11.00;90.94;100239.28;7392392;19;20031;-69
2022/12/15 06:22:44;;;;;;;66.35;30.30;;;;;;;-11.01;90.97;100238.41;7393092;19;20022;-67
2022/12/15 06:25:13;;;;;;;66.35;27.98;;;;;;;-11.01;90.58;100243.47;7393310;19;20386;-68
2022/12/15 06:27:41;;;;;;;78.40;31.85;;;;;;;-11.01;90.87;100240.94;7393448;19;20035;-67
2022/12/15 06:30:11;;;;;;;71.13;30.58;;;;;;;-10.99;90.86;100246.09;7392891;19;20081;-68
2022/12/15 06:32:39;;;;;;;78.07;32.70;;;;;;;-10.98;90.79;100247.81;7399130;19;20081;-67
2022/12/15 06:35:11;;;;;;;64.68;28.35;;;;;;;-10.97;90.84;100263.16;7400778;19;20032;-68
2022/12/15 06:37:39;;;;;;;69.10;29.25;;;;;;;-10.96;90.92;100264.00;7399260;19;20074;-68
2022/12/15 06:40:09;;;;;;;73.68;29.73;;;;;;;-10.99;91.10;100256.25;7401132;19;20026;-69
2022/12/15 06:42:38;;;;;;;64.30;29.23;;;;;;;-10.94;90.97;100266.63;7400147;19;20086;-68
2022/12/15 06:45:07;;;;;;;72.85;29.20;;;;;;;-10.95;90.95;100265.75;7400145;19;20018;-67
2022/12/15 06:47:36;;;;;;;72.30;29.30;;;;;;;-10.93;91.27;100275.97;7399975;19;20489;-69
2022/12/15 06:50:05;;;;;;;70.22;29.75;;;;;;;-10.96;91.21;100271.59;7397929;19;20035;-68
2022/12/15 06:52:37;;;;;;;70.10;28.75;;;;;;;-10.92;91.32;100281.13;7400631;19;20019;-68
2022/12/15 06:55:09;;;;;;;77.13;29.95;;;;;;;-10.91;91.11;100284.56;7400542;19;20027;-67
2022/12/15 06:57:38;;;;;;;77.13;31.27;;;;;;;-10.90;91.06;100291.38;7398981;19;20014;-67
2022/12/15 07:00:08;;;;;;;72.70;29.17;;;;;;;-10.88;91.22;100289.78;7400456;19;20118;-68
2022/12/15 07:02:36;;;;;;;65.80;28.98;;;;;;;-10.88;91.29;100288.13;7400094;19;20014;-68
2022/12/15 07:05:05;;;;;;;72.30;29.98;;;;;;;-10.86;91.21;100289.06;7398225;19;20493;-68
2022/12/15 07:07:33;;;;;;;74.18;32.95;;;;;;;-10.85;91.23;100292.50;7397277;19;20010;-68
2022/12/15 07:10:05;;;;;;;69.35;29.85;;;;;;;-10.84;91.19;100299.28;7397318;19;20027;-68
2022/12/15 07:12:33;;;;;;;63.95;29.55;;;;;;;-10.87;91.00;100301.66;7400315;19;20036;-68
2022/12/15 07:15:01;;;;;;;64.88;28.52;;;;;;;-10.83;91.16;100303.59;7399714;19;20485;-68
2022/12/15 07:17:30;;;;;;;72.43;27.73;;;;;;;-10.83;90.99;100303.59;7397079;19;20015;-68
2022/12/15 07:19:59;;;;;;;67.13;29.27;;;;;;;-10.82;91.01;100305.34;7396795;19;20070;-68
2022/12/15 07:22:29;;;;;;;71.43;31.30;;;;;;;-10.82;91.21;100311.25;7399942;19;20018;-68
2022/12/15 07:24:58;;;;;;;75.32;33.35;;;;;;;-10.81;91.12;100315.56;7400104;19;20014;-68
2022/12/15 07:27:29;;;;;;;81.05;32.45;;;;;;;-10.81;91.39;100318.09;7396938;19;20031;-68
2022/12/15 07:29:57;;;;;;;77.07;32.78;;;;;;;-10.78;91.43;100319.06;7399025;19;20070;-68
2022/12/15 07:32:26;;;;;;;79.45;31.77;;;;;;;-10.77;91.57;100324.22;7396455;19;20039;-68
2022/12/15 07:34:54;;;;;;;74.13;31.80;;;;;;;-10.73;91.87;100322.72;7398846;19;20529;-68
2022/12/15 07:37:23;;;;;;;83.82;33.05;;;;;;;-10.72;91.89;100330.41;7396914;19;20026;-68
2022/12/15 07:39:52;;;;;;;79.20;33.92;;;;;;;-10.71;91.63;100339.78;7398577;19;20481;-67
2022/12/15 07:42:20;;;;;;;79.75;33.88;;;;;;;-10.68;91.38;100336.53;7398638;19;20023;-68
2022/12/15 07:44:51;;;;;;;76.90;32.03;;;;;;;-10.71;91.41;100324.56;7398556;19;20561;-68
2022/12/15 07:47:20;;;;;;;75.00;31.35;;;;;;;-10.63;91.70;100339.34;7396730;19;20382;-67
2022/12/15 07:49:48;;;;;;;74.97;32.03;;;;;;;-10.62;91.49;100344.50;7396574;19;20163;-68
2022/12/15 07:52:17;;;;;;;71.43;32.10;;;;;;;-10.61;91.49;100347.91;7396389;19;20026;-68
2022/12/15 07:54:45;;;;;;;75.60;33.42;;;;;;;-10.60;91.58;100354.72;7398525;19;20082;-67
2022/12/15 07:57:15;;;;;;;86.85;33.72;;;;;;;-10.59;91.69;100349.72;7395964;19;20552;-68
2022/12/15 07:59:43;;;;;;;75.30;33.28;;;;;;;-10.58;92.39;100355.69;7397389;19;20018;-68
2022/12/15 08:02:15;;;;;;;81.88;33.75;;;;;;;-10.56;92.20;100355.00;7398191;19;20035;-68
2022/12/15 08:04:50;;;;;;;74.63;30.40;;;;;;;-10.55;92.18;100354.22;7396972;19;20078;-68
2022/12/15 08:07:24;;;;;;;84.22;33.83;;;;;;;-10.50;91.94;100359.53;7396053;19;20018;-68
2022/12/15 08:09:53;;;;;;;80.07;36.58;;;;;;;-10.46;91.96;100360.56;7397451;19;20384;-68
2022/12/15 08:12:22;;;;;;;82.88;36.80;;;;;;;-10.43;91.83;100365.84;7398251;19;20022;-69
2022/12/15 08:14:50;;;;;;;83.13;34.42;;;;;;;-10.42;92.02;100368.44;7395432;19;20078;-69
2022/12/15 08:17:22;;;;;;;80.00;35.72;;;;;;;-10.39;91.88;100371.16;7396225;19;20026;-69
2022/12/15 08:19:50;;;;;;;85.05;35.70;;;;;;;-10.36;91.98;100381.50;7398276;19;20031;-67
2022/12/15 08:22:19;;;;;;;82.80;35.70;;;;;;;-10.34;91.99;100379.00;7397634;19;20039;-68
2022/12/15 08:24:47;;;;;;;84.13;35.60;;;;;;;-10.29;92.05;100376.72;7394413;19;20027;-69
2022/12/15 08:27:16;;;;;;;91.95;37.75;;;;;;;-10.26;92.09;100379.41;7395001;19;20086;-69
2022/12/15 08:29:44;;;;;;;86.60;35.70;;;;;;;-10.22;92.00;100391.47;7396417;19;20018;-68
2022/12/15 08:32:13;;;;;;;88.20;35.42;;;;;;;-10.19;92.05;100390.00;7397209;19;20035;-68
2022/12/15 08:34:46;;;;;;;94.13;39.10;;;;;;;-10.16;91.75;100390.19;7396579;19;20018;-68
2022/12/15 08:37:14;;;;;;;89.03;39.30;;;;;;;-10.13;91.69;100389.47;7395060;19;20022;-68
2022/12/15 08:39:43;;;;;;;79.68;36.08;;;;;;;-10.10;91.79;100381.16;7397271;19;20477;-68
2022/12/15 08:42:11;;;;;;;88.43;38.67;;;;;;;-10.07;91.56;100381.31;7395178;19;20023;-68
2022/12/15 08:44:39;;;;;;;83.03;37.80;;;;;;;-10.04;91.66;100384.91;7394819;19;20036;-68
2022/12/15 08:47:08;;;;;;;80.32;36.05;;;;;;;-10.00;91.66;100383.41;7394440;19;20387;-68
2022/12/15 08:49:37;;;;;;;88.85;37.60;;;;;;;-9.95;91.67;100391.28;7396816;19;20116;-69
2022/12/15 08:52:08;;;;;;;86.82;37.65;;;;;;;-9.92;91.60;100393.97;7395048;19;20098;-68
2022/12/15 08:54:36;;;;;;;77.35;37.17;;;;;;;-9.89;91.66;100400.09;7395924;19;20023;-69
2022/12/15 08:57:05;;;;;;;76.40;32.05;;;;;;;-9.84;91.70;100411.38;7395143;19;20023;-68
2022/12/15 08:59:33;;;;;;;74.60;34.20;;;;;;;-9.79;91.79;100420.91;7397045;19;20023;-68
2022/12/15 09:02:02;;;;;;;82.90;35.25;;;;;;;-9.75;91.76;100410.16;7394529;19;20015;-68
2022/12/15 09:04:30;;;;;;;82.22;36.33;;;;;;;-9.75;91.73;100413.56;7395326;19;20066;-68
2022/12/15 09:06:59;;;;;;;74.97;35.53;;;;;;;-9.67;91.79;100417.41;7394105;19;20035;-68
2022/12/15 09:09:30;;;;;;;72.50;35.30;;;;;;;-9.61;91.61;100419.38;7394213;19;20019;-68
2022/12/15 09:11:58;;;;;;;76.97;35.70;;;;;;;-9.58;91.73;100405.97;7395983;19;20070;-68
2022/12/15 09:14:27;;;;;;;76.50;35.95;;;;;;;-9.53;91.54;100407.09;7395331;19;20584;-69
2022/12/15 09:16:55;;;;;;;78.18;37.00;;;;;;;-9.47;91.66;100411.66;7393613;19;20014;-68
2022/12/15 09:19:24;;;;;;;72.55;34.97;;;;;;;-9.45;91.71;100408.41;7395562;19;20031;-67
2022/12/15 09:21:52;;;;;;;77.93;36.50;;;;;;;-9.39;91.59;100406.19;7395676;19;20033;-68
2022/12/15 09:24:20;;;;;;;85.38;38.35;;;;;;;-9.34;91.83;100404.75;7393228;19;20018;-68
2022/12/15 09:26:52;;;;;;;81.07;36.97;;;;;;;-9.28;91.65;100401.66;7394254;19;20082;-68
2022/12/15 09:29:20;;;;;;;83.25;38.97;;;;;;;-9.22;91.65;100403.66;7394291;19;20082;-69
2022/12/15 09:31:48;;;;;;;71.95;34.95;;;;;;;-9.18;91.79;100405.56;7395565;19;20029;-68
2022/12/15 09:34:17;;;;;;;85.32;36.75;;;;;;;-9.12;91.85;100405.88;7393481;19;20397;-68
2022/12/15 09:36:46;;;;;;;77.47;35.67;;;;;;;-9.06;91.87;100406.19;7393455;19;20138;-68
2022/12/15 09:39:15;;;;;;;71.57;35.80;;;;;;;-9.00;91.79;100408.16;7393103;19;20091;-68
2022/12/15 09:41:55;;;;;;;75.72;36.08;;;;;;;-8.93;91.68;100409.34;7393176;19;20015;-68
2022/12/15 09:44:26;;;;;;;72.25;36.53;;;;;;;-8.87;91.78;100408.00;7395953;19;20492;-68
2022/12/15 09:47:04;;;;;;;73.40;37.97;;;;;;;-8.81;91.79;100401.50;7393756;19;20422;-68
2022/12/15 09:49:45;;;;;;;73.03;37.30;;;;;;;-8.76;91.85;100403.47;7392703;19;20070;-67
2022/12/15 09:52:16;;;;;;;81.53;39.17;;;;;;;-8.69;91.79;100410.59;7394908;19;20071;-68
2022/12/15 09:54:46;;;;;;;82.90;40.67;;;;;;;-8.61;91.86;100412.69;7393648;19;20035;-69
2022/12/15 09:57:26;;;;;;;74.10;38.00;;;;;;;-8.54;91.90;100414.75;7394227;19;20014;-68
2022/12/15 10:00:13;;;;;;;76.50;38.38;;;;;;;-8.48;91.85;100412.47;7394482;19;20082;-69
2022/12/15 10:03:26;;;;;;;74.75;36.58;;;;;;;-8.41;91.73;100408.53;7394714;19;20018;-69
2022/12/15 10:06:09;;;;;;;80.82;36.30;;;;;;;-8.38;91.69;100409.56;7391303;19;20074;-68
2022/12/15 10:08:40;;;;;;;71.88;35.78;;;;;;;-8.28;91.74;100407.47;7399436;19;20015;-67
2022/12/15 10:11:21;;;;;;;75.65;35.17;;;;;;;-8.20;91.89;100413.78;7402035;19;20022;-68
2022/12/15 10:13:56;;;;;;;75.35;35.95;;;;;;;-8.11;91.96;100413.38;7402801;19;20011;-68
2022/12/15 10:16:31;;;;;;;68.85;35.80;;;;;;;-8.04;91.86;100405.22;7399180;19;20043;-68
2022/12/15 10:19:09;;;;;;;75.20;37.00;;;;;;;-7.93;91.78;100405.75;7399614;19;20022;-68
2022/12/15 10:21:38;;;;;;;84.45;38.33;;;;;;;-7.82;92.01;100411.34;7402251;19;20026;-68
2022/12/15 10:24:17;;;;;;;78.65;39.22;;;;;;;-7.72;91.92;100414.41;7401858;19;20035;-68
2022/12/15 10:26:54;;;;;;;85.95;38.95;;;;;;;-7.61;92.02;100422.53;7399108;19;20018;-68
2022/12/15 10:29:38;;;;;;;78.90;38.47;;;;;;;-7.50;91.71;100422.19;7401406;19;20078;-68
2022/12/15 10:32:17;;;;;;;68.65;36.38;;;;;;;-7.39;91.86;100416.75;7401816;19;20026;-68
2022/12/15 10:34:45;;;;;;;74.50;37.35;;;;;;;-7.32;91.87;100409.38;7402339;19;20022;-69
2022/12/15 10:37:17;;;;;;;64.90;34.78;;;;;;;-7.15;92.09;100415.22;7399210;19;20019;-69
2022/12/15 10:39:48;;;;;;;68.32;35.97;;;;;;;-7.06;91.89;100420.75;7401645;19;20031;-69
2022/12/15 10:42:20;;;;;;;68.60;36.72;;;;;;;-6.97;91.69;100423.69;7401289;19;20014;-69
2022/12/15 10:44:52;;;;;;;71.38;37.60;;;;;;;-6.89;91.68;100417.28;7397226;19;20018;-68
2022/12/15 10:47:27;;;;;;;64.68;34.55;;;;;;;-6.80;91.46;100418.44;7398055;19;20070;-69
2022/12/15 10:49:57;;;;;;;61.30;33.70;;;;;;;-6.72;91.32;100420.53;7399800;19;20014;-68
2022/12/15 10:52:33;;;;;;;63.17;34.42;;;;;;;-6.65;91.31;100420.78;7398183;19;20018;-68
2022/12/15 10:55:01;;;;;;;62.17;32.83;;;;;;;-6.64;91.27;100417.44;7401388;19;20074;-68
2022/12/15 10:57:33;;;;;;;64.50;34.35;;;;;;;-6.56;90.99;100429.72;7398253;19;20031;-68
2022/12/15 11:00:28;;;;;;;60.20;34.03;;;;;;;-6.52;91.22;100432.38;7401545;19;20087;-68
2022/12/15 11:02:57;;;;;;;56.92;32.47;;;;;;;-6.50;91.14;100430.78;7397203;19;20021;-67
2022/12/15 11:05:26;;;;;;;63.45;34.50;;;;;;;-6.44;90.98;100431.06;7398156;19;20018;-68
2022/12/15 11:07:56;;;;;;;58.72;32.85;;;;;;;-6.42;91.09;100424.31;7400350;19;20018;-69
2022/12/15 11:12:50;;;;;;;67.03;32.63;;;;;;;-6.39;91.34;100422.75;7400869;19;20032;-69
2022/12/15 11:13:15;;;;;;;62.22;33.45;;;;;;;-6.33;91.29;100421.28;7399503;19;20021;-69
2022/12/15 11:15:49;;;;;;;59.72;31.63;;;;;;;-6.27;91.30;100421.53;7397085;19;20020;-69
2022/12/15 11:18:23;;;;;;;;;;;;;;;-6.25;90.83;100422.47;7397698;19;20074;-68
2022/12/15 11:20:57;;;;;;;60.10;31.98;;;;;;;-6.22;91.08;100420.03;7398667;19;19923;-68
2022/12/15 11:23:35;;;;;;;67.43;34.42;;;;;;;-6.19;91.21;100430.38;7400110;19;20022;-70
2022/12/15 11:26:13;;;;;;;59.92;32.85;;;;;;;-6.17;90.94;100426.19;7398725;19;20419;-69
2022/12/15 11:28:47;;;;;;;70.03;37.80;;;;;;;-6.13;91.13;100433.19;7398441;19;20082;-68
2022/12/15 11:31:28;;;;;;;66.82;35.97;;;;;;;-6.08;91.07;100438.47;7398371;19;20039;-69
2022/12/15 11:33:57;;;;;;;61.47;33.38;;;;;;;-6.02;91.00;100440.41;7398399;19;20037;-69
2022/12/15 11:36:48;;;;;;;58.83;31.52;;;;;;;-5.99;91.13;100443.97;7397696;19;20022;-69
2022/12/15 11:39:26;;;;;;;55.58;31.92;;;;;;;-5.94;90.78;100444.09;7397419;19;20070;-69
2022/12/15 11:42:05;;;;;;;59.28;34.25;;;;;;;-5.87;91.06;100446.09;7399933;19;20039;-68
2022/12/15 11:44:45;;;;;;;60.05;32.55;;;;;;;-5.78;91.25;100456.69;7399829;19;20018;-69
2022/12/15 11:47:28;;;;;;;58.53;32.63;;;;;;;-5.70;90.96;100458.66;7396439;19;20384;-69
2022/12/15 11:50:13;;;;;;;61.83;35.28;;;;;;;-5.61;91.13;100456.47;7399657;19;20074;-68
2022/12/15 11:53:02;;;;;;;68.03;36.47;;;;;;;-5.51;90.89;100460.25;7396285;19;20031;-68
2022/12/15 11:55:44;;;;;;;67.78;35.15;;;;;;;-5.45;91.06;100451.13;7396046;19;20482;-69
2022/12/15 11:58:40;;;;;;;61.17;35.28;;;;;;;-5.33;90.82;100454.97;7398066;19;20036;-69
2022/12/15 12:01:41;;;;;;;55.78;32.33;;;;;;;-5.25;90.72;100448.47;7397102;19;20014;-69
2022/12/15 12:04:21;;;;;;;52.03;29.65;;;;;;;-5.17;90.41;100454.72;7398534;19;20044;-69
2022/12/15 12:06:58;;;;;;;61.13;32.70;;;;;;;-5.14;90.33;100454.00;7395718;19;20564;-69
2022/12/15 12:09:33;;;;;;;57.58;30.80;;;;;;;-5.11;90.57;100449.84;7397385;19;20066;-69
2022/12/15 12:12:13;;;;;;;60.25;32.33;;;;;;;-5.07;90.27;100446.63;7397100;19;20031;-69
2022/12/15 12:14:51;;;;;;;61.75;33.05;;;;;;;-5.03;90.58;100454.38;7397200;19;20022;-69
2022/12/15 12:17:25;;;;;;;57.88;31.80;;;;;;;-4.99;90.62;100458.78;7395602;19;20029;-69
2022/12/15 12:20:01;;;;;;;53.70;31.17;;;;;;;-4.94;90.50;100454.72;7395000;19;20031;-69
2022/12/15 12:22:36;;;;;;;58.97;33.53;;;;;;;-4.92;90.49;100448.84;7395770;19;20073;-68
2022/12/15 12:25:08;;;;;;;54.10;33.65;;;;;;;-4.87;90.30;100446.44;7394525;19;20019;-68
2022/12/15 12:27:41;;;;;;;55.30;33.03;;;;;;;-4.84;90.44;100449.13;7394830;19;20513;-68
2022/12/15 12:30:15;;;;;;;61.45;35.75;;;;;;;-4.86;90.56;100437.97;7394300;19;20103;-69
2022/12/15 12:32:51;;;;;;;71.80;39.97;;;;;;;-4.78;90.33;100449.34;7395550;19;20022;-68
2022/12/15 12:35:28;;;;;;;78.00;42.22;;;;;;;-4.76;90.26;100450.25;7396618;19;20036;-68
2022/12/15 12:38:01;;;;;;;66.40;37.97;;;;;;;-4.72;90.05;100450.38;7394859;19;20018;-69
2022/12/15 12:40:42;;;;;;;58.03;33.25;;;;;;;-4.70;90.02;100453.84;7396490;19;20017;-69
2022/12/15 12:43:19;;;;;;;68.60;38.78;;;;;;;-4.66;90.07;100450.59;7395423;19;20014;-68
2022/12/15 12:45:55;;;;;;;78.25;43.78;;;;;;;-4.64;89.90;100447.28;7396206;19;20075;-66
2022/12/15 12:48:32;;;;;;;77.20;40.78;;;;;;;-4.60;90.18;100448.25;7396652;19;20034;-68
2022/12/15 12:51:18;;;;;;;69.45;37.42;;;;;;;-4.57;90.00;100440.69;7396431;19;20482;-67
2022/12/15 12:53:47;;;;;;;66.22;37.72;;;;;;;-4.53;90.13;100442.53;7395926;19;20015;-71
2022/12/15 12:56:39;;;;;;;54.75;33.90;;;;;;;-4.49;90.06;100436.69;7395976;19;20039;-68
2022/12/15 12:59:40;;;;;;;54.92;34.35;;;;;;;-4.44;90.01;100436.84;7396831;19;20085;-69
2022/12/15 13:02:39;;;;;;;54.65;32.22;;;;;;;-4.40;89.73;100433.56;7394629;19;20031;-69
2022/12/15 13:05:26;;;;;;;53.30;33.55;;;;;;;-4.31;90.17;100433.00;7395669;19;20016;-70
2022/12/15 13:08:28;;;;;;;55.17;34.13;;;;;;;-4.24;90.30;100426.41;7396418;19;20091;-69
2022/12/15 13:10:57;;;;;;;50.72;30.48;;;;;;;-4.15;90.10;100429.28;7396595;19;20018;-69
2022/12/15 13:13:44;;;;;;;58.20;32.97;;;;;;;-4.07;89.79;100429.53;7396378;19;20035;-69
2022/12/15 13:16:20;;;;;;;53.20;32.08;;;;;;;-4.04;89.82;100421.91;7395816;19;20032;-69
2022/12/15 13:19:00;;;;;;;54.10;32.08;;;;;;;-3.93;89.66;100424.03;7395141;19;20074;-68
2022/12/15 13:21:55;;;;;;;53.85;31.15;;;;;;;-3.79;89.99;100421.00;7395329;19;20018;-69
2022/12/15 13:24:37;;;;;;;51.65;31.23;;;;;;;-3.62;90.15;100421.53;7395068;19;20544;-68
2022/12/15 13:27:14;;;;;;;46.88;29.30;;;;;;;-3.45;90.17;100420.38;7394260;19;20467;-69
2022/12/15 13:29:57;;;;;;;57.50;33.50;;;;;;;-3.23;90.03;100415.88;7396193;19;20015;-68
2022/12/15 13:32:37;;;;;;;48.70;30.00;;;;;;;-3.02;89.82;100414.72;7395881;19;20023;-69
2022/12/15 13:35:26;;;;;;;46.67;29.67;;;;;;;-2.82;89.38;100405.91;7395483;19;20039;-68
2022/12/15 13:37:57;;;;;;;46.53;27.90;;;;;;;-2.62;89.62;100408.13;7396034;19;20423;-68
2022/12/15 13:40:36;;;;;;;43.92;28.45;;;;;;;-2.42;89.06;100415.50;7393230;19;20335;-69
2022/12/15 13:43:40;;;;;;;50.45;30.58;;;;;;;-2.22;89.13;100414.28;7395695;19;20026;-70
2022/12/15 13:46:16;;;;;;;45.58;29.50;;;;;;;-2.02;89.01;100412.22;7394456;19;20439;-68
2022/12/15 13:48:48;;;;;;;49.78;30.52;;;;;;;-1.85;88.39;100419.47;7395289;19;20419;-69
2022/12/15 13:51:44;;;;;;;47.38;29.55;;;;;;;-1.69;86.22;100418.13;7394697;19;20035;-68
2022/12/15 13:54:17;;;;;;;48.53;28.52;;;;;;;-1.57;87.72;100418.38;7393634;19;20025;-70